Capitol Logistics 220


KRIV
March Air Reserve Base
Riverside, California, US
KSEA
Seattle-Tacoma International Airport
Seattle, Washington, US

Activity Log

Date Flight Route Aircraft Duration
07/21/2019 CPX220 KRIV/32 SLI J78 LAX J1 AVE J189 LMT HAWKZ7 KSEA/34R B763 2h 14m
02/14/2019 CPX220 SKYES3 OCN J1 AVE J189 LMT HAWKZ7 B763 2h 25m
01/14/2019 CPX220 SLI J78 LAX J1 AVE J189 LMT HAWKZ7 B763 2h 27m

Route Details

Aircraft Information
Primary: Boeing 767-300BDSF
Backup: Not Available
Route Data
Distance: 833nm
Sched. Duration: 2h 29m
Avg. Duration: 2h 22m (-8m)
Times Flown: 3
Recm'd Route: SLI J78 LAX J1 AVE J189 LMT HAWKZ7
Planned Altitude: 36,000ft
Origin Wx: KRIV 071500Z 00000KT 10SM FEW008 SCT047 SCT065 BKN080 BKN090 10/09 A3004 RMK SLP172
Dest. Wx: KSEA 071453Z 12005KT 10SM SCT015 BKN250 06/02 A3022 RMK AO2 SLP240 T00610022 53018
Notes:

Financial History
Total Freight: 272,931lbs
Average Load: 90,977lbs/flt
Fuel Used: 79,571lbs
Avg. Fuel Used: 26,524lbs/flt
Fuel Expense: $54,904
Avg. Fuel Expense: $18,301
Avg. Fuel Cost: $0.69/lbs
Total Gross Income: $352,081
Pilot Pay: $607
Total Expenses: $38,181
Total Revenue: $257,318
Average Revenue: $117,360.33